Time;durP1;ratioP1;P1;durP2;ratioP2;P2;SDS_P1;SDS_P2;PMS_P1;PMS_P2;Temp;Humidity;BMP_temperature;BMP_pressure;BME280_temperature;BME280_humidity;BME280_pressure;Samples;Min_cycle;Max_cycle;Signal;HPM_P1;HPM_P2
2023/09/09 00:01:06;;;;;;;0.20;0.20;;;;;;;;;;5013738;28;20457;-62
2023/09/09 00:03:31;;;;;;;0.20;0.20;;;;;;;;;;5016456;28;20487;-59
2023/09/09 00:05:56;;;;;;;0.20;0.20;;;;;;;;;;5014689;28;20045;-60
2023/09/09 00:08:21;;;;;;;0.20;0.20;;;;;;;;;;5017810;28;20450;-62
2023/09/09 00:10:47;;;;;;;0.20;0.20;;;;;;;;;;5012661;28;20045;-59
2023/09/09 00:13:13;;;;;;;0.20;0.20;;;;;;;;;;5014375;28;20033;-59
2023/09/09 00:15:39;;;;;;;0.10;0.10;;;;;;;;;;5015756;28;20034;-61
2023/09/09 00:18:04;;;;;;;0.20;0.20;;;;;;;;;;5014607;28;20395;-61
2023/09/09 00:20:33;;;;;;;0.20;0.20;;;;;;;;;;5020833;28;20068;-61
2023/09/09 00:23:07;;;;;;;0.20;0.20;;;;;;;;;;5016275;28;20033;-61
2023/09/09 00:25:42;;;;;;;0.20;0.20;;;;;;;;;;5015893;28;20555;-62
2023/09/09 00:28:08;;;;;;;0.20;0.20;;;;;;;;;;5012722;28;20022;-60
2023/09/09 00:30:34;;;;;;;0.20;0.20;;;;;;;;;;5016115;28;20060;-60
2023/09/09 00:32:59;;;;;;;0.20;0.20;;;;;;;;;;5017041;28;20026;-60
2023/09/09 00:35:24;;;;;;;0.20;0.20;;;;;;;;;;5013954;28;20033;-61
2023/09/09 00:37:50;;;;;;;0.20;0.20;;;;;;;;;;5014516;28;20108;-59
2023/09/09 00:40:16;;;;;;;0.20;0.20;;;;;;;;;;5013824;28;20041;-64
2023/09/09 00:42:41;;;;;;;0.20;0.20;;;;;;;;;;5014978;28;20060;-61
2023/09/09 00:45:06;;;;;;;0.20;0.20;;;;;;;;;;5014216;28;20034;-60
2023/09/09 00:47:33;;;;;;;0.20;0.20;;;;;;;;;;5016682;28;20026;-59
2023/09/09 00:49:58;;;;;;;0.20;0.20;;;;;;;;;;5014056;28;20080;-58
2023/09/09 00:52:24;;;;;;;0.20;0.20;;;;;;;;;;5011092;28;20034;-58
2023/09/09 00:54:50;;;;;;;0.20;0.20;;;;;;;;;;5013132;28;20474;-60
2023/09/09 00:57:16;;;;;;;0.20;0.20;;;;;;;;;;5013767;28;20063;-61
2023/09/09 00:59:41;;;;;;;0.20;0.20;;;;;;;;;;5012119;28;20037;-62
2023/09/09 01:02:06;;;;;;;0.20;0.20;;;;;;;;;;5015249;28;20041;-59
2023/09/09 01:04:32;;;;;;;0.20;0.20;;;;;;;;;;5013266;28;20631;-59
2023/09/09 01:07:00;;;;;;;0.20;0.20;;;;;;;;;;5009387;28;20037;-62
2023/09/09 01:09:25;;;;;;;0.20;0.20;;;;;;;;;;5014638;28;20042;-64
2023/09/09 01:11:50;;;;;;;0.20;0.20;;;;;;;;;;5017966;28;20100;-59
2023/09/09 01:14:16;;;;;;;0.20;0.20;;;;;;;;;;5011271;28;20092;-60
2023/09/09 01:16:42;;;;;;;0.20;0.20;;;;;;;;;;5028872;28;20052;-60
2023/09/09 01:19:08;;;;;;;0.20;0.20;;;;;;;;;;5012038;28;20026;-63
2023/09/09 01:21:34;;;;;;;0.25;0.25;;;;;;;;;;5013753;28;20048;-59
2023/09/09 01:24:00;;;;;;;0.25;0.25;;;;;;;;;;5012926;28;20053;-62
2023/09/09 01:26:26;;;;;;;0.20;0.20;;;;;;;;;;5010960;28;20037;-62
2023/09/09 01:28:51;;;;;;;0.20;0.20;;;;;;;;;;5013153;28;20108;-63
2023/09/09 01:31:17;;;;;;;0.20;0.20;;;;;;;;;;5012641;28;20057;-62
2023/09/09 01:33:42;;;;;;;0.20;0.20;;;;;;;;;;5017738;28;20395;-58
2023/09/09 01:36:09;;;;;;;0.20;0.20;;;;;;;;;;5011283;28;20132;-62
2023/09/09 01:38:35;;;;;;;0.23;0.23;;;;;;;;;;5018363;28;20502;-61
2023/09/09 01:41:01;;;;;;;0.20;0.20;;;;;;;;;;5020792;28;20065;-61
2023/09/09 01:43:26;;;;;;;0.20;0.20;;;;;;;;;;5013471;28;20065;-61
2023/09/09 01:45:51;;;;;;;0.20;0.20;;;;;;;;;;5018731;28;21077;-63
2023/09/09 01:48:17;;;;;;;0.20;0.20;;;;;;;;;;5002690;28;20471;-60
2023/09/09 01:50:43;;;;;;;0.20;0.20;;;;;;;;;;5012948;28;20038;-63
2023/09/09 01:53:09;;;;;;;0.30;0.30;;;;;;;;;;5011518;28;20076;-60
2023/09/09 01:55:34;;;;;;;0.30;0.30;;;;;;;;;;5013534;28;20030;-62
2023/09/09 01:58:00;;;;;;;0.20;0.20;;;;;;;;;;5017154;28;20120;-58
2023/09/09 02:00:27;;;;;;;0.20;0.20;;;;;;;;;;5020097;28;20033;-62
2023/09/09 02:02:52;;;;;;;0.20;0.20;;;;;;;;;;5011742;28;20068;-62
2023/09/09 02:05:18;;;;;;;0.20;0.20;;;;;;;;;;5010285;28;20534;-58
2023/09/09 02:07:43;;;;;;;0.20;0.20;;;;;;;;;;5000548;28;20744;-60
2023/09/09 02:10:08;;;;;;;0.30;0.30;;;;;;;;;;5012680;28;20044;-59
2023/09/09 02:12:34;;;;;;;0.30;0.30;;;;;;;;;;5012593;28;20666;-59
2023/09/09 02:14:59;;;;;;;0.10;0.10;;;;;;;;;;5010851;28;20550;-63
2023/09/09 02:17:30;;;;;;;0.20;0.20;;;;;;;;;;5017537;28;20502;-59
2023/09/09 02:19:56;;;;;;;0.30;0.30;;;;;;;;;;5015012;28;20124;-61
2023/09/09 02:22:21;;;;;;;0.20;0.20;;;;;;;;;;5013231;28;20152;-60
2023/09/09 02:24:47;;;;;;;0.20;0.20;;;;;;;;;;5014111;28;20030;-63
2023/09/09 02:27:12;;;;;;;0.30;0.30;;;;;;;;;;5019987;28;20641;-58
2023/09/09 02:29:38;;;;;;;0.20;0.20;;;;;;;;;;5009188;28;20033;-59
2023/09/09 02:32:03;;;;;;;0.20;0.20;;;;;;;;;;4995124;28;21751;-61
2023/09/09 02:34:29;;;;;;;0.30;0.30;;;;;;;;;;5009118;28;20060;-62
2023/09/09 02:37:10;;;;;;;0.20;0.20;;;;;;;;;;5008842;28;20060;-61
2023/09/09 02:39:36;;;;;;;0.20;0.20;;;;;;;;;;5017076;28;20057;-60
2023/09/09 02:42:01;;;;;;;0.20;0.20;;;;;;;;;;5009382;28;20037;-64
2023/09/09 02:44:26;;;;;;;0.30;0.30;;;;;;;;;;5016328;28;20029;-59
2023/09/09 02:46:52;;;;;;;0.30;0.30;;;;;;;;;;5008871;28;20025;-61
2023/09/09 02:49:17;;;;;;;0.20;0.20;;;;;;;;;;5010378;28;20141;-58
2023/09/09 02:51:42;;;;;;;0.20;0.20;;;;;;;;;;5010269;28;20079;-61
2023/09/09 02:54:08;;;;;;;0.22;0.22;;;;;;;;;;5009707;28;20029;-61
2023/09/09 02:56:33;;;;;;;0.20;0.20;;;;;;;;;;5008606;28;20141;-58
2023/09/09 02:58:58;;;;;;;0.30;0.30;;;;;;;;;;5008550;28;20407;-62
2023/09/09 03:01:24;;;;;;;0.20;0.20;;;;;;;;;;5007948;28;20038;-63
2023/09/09 03:03:49;;;;;;;0.20;0.20;;;;;;;;;;5013267;28;20076;-62
2023/09/09 03:06:15;;;;;;;0.28;0.28;;;;;;;;;;5010190;28;20047;-60
2023/09/09 03:08:40;;;;;;;0.20;0.20;;;;;;;;;;5012730;28;20124;-60
2023/09/09 03:11:05;;;;;;;0.20;0.20;;;;;;;;;;5015135;28;20030;-59
2023/09/09 03:13:31;;;;;;;0.20;0.20;;;;;;;;;;5010954;28;20060;-59
2023/09/09 03:15:56;;;;;;;0.30;0.30;;;;;;;;;;5004817;28;20049;-60
2023/09/09 03:18:22;;;;;;;0.28;0.28;;;;;;;;;;5010889;28;20756;-59
2023/09/09 03:20:47;;;;;;;0.30;0.30;;;;;;;;;;5014724;28;20048;-59
2023/09/09 03:23:12;;;;;;;0.30;0.30;;;;;;;;;;5012985;28;20148;-62
2023/09/09 03:25:38;;;;;;;0.30;0.30;;;;;;;;;;5015084;28;20045;-61
2023/09/09 03:28:03;;;;;;;0.30;0.30;;;;;;;;;;5009412;28;20057;-59
2023/09/09 03:30:48;;;;;;;0.28;0.28;;;;;;;;;;5011914;28;20471;-61
2023/09/09 03:33:13;;;;;;;0.20;0.20;;;;;;;;;;5009519;28;21038;-62
2023/09/09 03:35:39;;;;;;;0.30;0.30;;;;;;;;;;5011345;28;20515;-64
2023/09/09 03:38:04;;;;;;;0.30;0.30;;;;;;;;;;5008335;28;20030;-60
2023/09/09 03:40:30;;;;;;;0.20;0.20;;;;;;;;;;5012941;28;20069;-62
2023/09/09 03:42:55;;;;;;;0.22;0.22;;;;;;;;;;5010752;28;20107;-62
2023/09/09 03:45:21;;;;;;;0.30;0.30;;;;;;;;;;5014221;28;20034;-59
2023/09/09 03:47:46;;;;;;;0.30;0.30;;;;;;;;;;5011014;28;20026;-59
2023/09/09 03:50:11;;;;;;;0.22;0.22;;;;;;;;;;5010255;28;20034;-61
2023/09/09 03:52:37;;;;;;;0.30;0.30;;;;;;;;;;5017613;28;20128;-59
2023/09/09 03:55:02;;;;;;;0.20;0.20;;;;;;;;;;5009822;28;20121;-60
2023/09/09 03:57:27;;;;;;;0.30;0.30;;;;;;;;;;5010359;28;20108;-62
2023/09/09 03:59:53;;;;;;;0.20;0.20;;;;;;;;;;5002125;28;20045;-61
2023/09/09 04:02:18;;;;;;;0.30;0.30;;;;;;;;;;5011410;28;20939;-61
2023/09/09 04:04:44;;;;;;;0.30;0.30;;;;;;;;;;5008872;28;20037;-60
2023/09/09 04:07:09;;;;;;;0.30;0.30;;;;;;;;;;5009669;28;20064;-61
2023/09/09 04:09:40;;;;;;;0.30;0.30;;;;;;;;;;5011518;28;20032;-61
2023/09/09 04:12:07;;;;;;;0.30;0.30;;;;;;;;;;5019574;28;20119;-65
2023/09/09 04:14:32;;;;;;;0.20;0.20;;;;;;;;;;5007269;28;20029;-59
2023/09/09 04:16:57;;;;;;;0.30;0.30;;;;;;;;;;5012656;28;20083;-59
2023/09/09 04:19:23;;;;;;;0.30;0.30;;;;;;;;;;5011416;28;20044;-57
2023/09/09 04:21:51;;;;;;;0.30;0.30;;;;;;;;;;5012162;28;20037;-60
2023/09/09 04:24:16;;;;;;;0.30;0.30;;;;;;;;;;5013812;28;20053;-60
2023/09/09 04:26:42;;;;;;;0.20;0.20;;;;;;;;;;5011984;28;20065;-57
2023/09/09 04:29:07;;;;;;;0.30;0.30;;;;;;;;;;5010077;28;20125;-58
2023/09/09 04:31:32;;;;;;;0.30;0.30;;;;;;;;;;5027694;28;20051;-59
2023/09/09 04:33:58;;;;;;;0.30;0.30;;;;;;;;;;5010713;28;20034;-60
2023/09/09 04:36:24;;;;;;;0.30;0.30;;;;;;;;;;5010961;28;20051;-58
2023/09/09 04:38:49;;;;;;;0.30;0.30;;;;;;;;;;5014232;28;20032;-60
2023/09/09 04:41:14;;;;;;;0.30;0.30;;;;;;;;;;5014886;28;20147;-59
2023/09/09 04:43:40;;;;;;;0.30;0.30;;;;;;;;;;5029779;28;20080;-57
2023/09/09 04:46:06;;;;;;;0.30;0.30;;;;;;;;;;5019951;28;20586;-58
2023/09/09 04:48:32;;;;;;;0.30;0.30;;;;;;;;;;5002113;28;20017;-60
2023/09/09 04:50:59;;;;;;;0.30;0.30;;;;;;;;;;5014123;28;20053;-59
2023/09/09 04:53:25;;;;;;;0.30;0.30;;;;;;;;;;5014375;28;20080;-59
2023/09/09 04:55:50;;;;;;;0.30;0.30;;;;;;;;;;5012526;28;20858;-61
2023/09/09 04:58:15;;;;;;;0.30;0.30;;;;;;;;;;5014248;28;20038;-61
2023/09/09 05:00:41;;;;;;;0.30;0.30;;;;;;;;;;5012144;28;20152;-60
2023/09/09 05:03:06;;;;;;;0.30;0.30;;;;;;;;;;5018404;28;20034;-58
2023/09/09 05:05:32;;;;;;;0.30;0.30;;;;;;;;;;5014399;28;20021;-59
2023/09/09 05:07:57;;;;;;;0.30;0.30;;;;;;;;;;5013678;28;20025;-60
2023/09/09 05:10:24;;;;;;;0.30;0.30;;;;;;;;;;5010494;28;20034;-61
2023/09/09 05:12:49;;;;;;;0.40;0.40;;;;;;;;;;5013338;28;20049;-60
2023/09/09 05:15:16;;;;;;;0.30;0.30;;;;;;;;;;5012479;28;20566;-61
2023/09/09 05:17:42;;;;;;;;;;;;;;;;;;5012994;28;20082;-63
2023/09/09 05:20:08;;;;;;;0.30;0.30;;;;;;;;;;5013795;28;19972;-59
2023/09/09 05:22:34;;;;;;;0.30;0.30;;;;;;;;;;5013255;28;20125;-59
2023/09/09 05:25:00;;;;;;;0.30;0.30;;;;;;;;;;5011561;28;20144;-59
2023/09/09 05:27:25;;;;;;;0.30;0.30;;;;;;;;;;5013490;28;20124;-64
2023/09/09 05:29:50;;;;;;;0.30;0.30;;;;;;;;;;5009050;28;20032;-61
2023/09/09 05:32:16;;;;;;;0.30;0.30;;;;;;;;;;5010170;28;20037;-58
2023/09/09 05:34:41;;;;;;;0.25;0.25;;;;;;;;;;5017839;28;20099;-63
2023/09/09 05:37:07;;;;;;;0.20;0.20;;;;;;;;;;5014039;28;20021;-64
2023/09/09 05:39:32;;;;;;;0.20;0.20;;;;;;;;;;5014371;28;20099;-59
2023/09/09 05:41:58;;;;;;;0.28;0.28;;;;;;;;;;5014274;28;20105;-61
2023/09/09 05:44:23;;;;;;;0.20;0.20;;;;;;;;;;5011962;28;20033;-58
2023/09/09 05:46:48;;;;;;;0.30;0.30;;;;;;;;;;5011750;28;20048;-60
2023/09/09 05:49:14;;;;;;;0.30;0.30;;;;;;;;;;5012485;28;20037;-60
2023/09/09 05:51:39;;;;;;;0.30;0.30;;;;;;;;;;5013217;28;20049;-59
2023/09/09 05:54:04;;;;;;;0.30;0.30;;;;;;;;;;5012295;28;20033;-64
2023/09/09 05:56:30;;;;;;;0.20;0.20;;;;;;;;;;5011500;28;20087;-60
2023/09/09 05:58:55;;;;;;;0.20;0.20;;;;;;;;;;5016101;28;20035;-59
2023/09/09 06:01:21;;;;;;;0.25;0.25;;;;;;;;;;5011759;28;20033;-60
2023/09/09 06:03:49;;;;;;;0.25;0.25;;;;;;;;;;5007437;28;20034;-59
2023/09/09 06:06:15;;;;;;;0.20;0.20;;;;;;;;;;5016274;28;20060;-61
2023/09/09 06:08:40;;;;;;;0.20;0.20;;;;;;;;;;5012367;28;20221;-58
2023/09/09 06:11:06;;;;;;;0.20;0.20;;;;;;;;;;5016362;28;20383;-62
2023/09/09 06:13:31;;;;;;;0.25;0.25;;;;;;;;;;4998288;28;21268;-61
2023/09/09 06:15:56;;;;;;;0.20;0.20;;;;;;;;;;5005737;28;20033;-61
2023/09/09 06:18:23;;;;;;;0.20;0.20;;;;;;;;;;5011612;28;20044;-63
2023/09/09 06:20:50;;;;;;;0.20;0.20;;;;;;;;;;5013054;28;20064;-61
2023/09/09 06:23:15;;;;;;;0.25;0.25;;;;;;;;;;5013760;28;20028;-60
2023/09/09 06:25:41;;;;;;;0.20;0.20;;;;;;;;;;5009804;28;20036;-58
2023/09/09 06:28:07;;;;;;;0.20;0.20;;;;;;;;;;5017558;28;20037;-59
2023/09/09 06:30:34;;;;;;;0.20;0.20;;;;;;;;;;5018986;28;20133;-63
2023/09/09 06:32:59;;;;;;;0.20;0.20;;;;;;;;;;5011284;28;20105;-61
2023/09/09 06:35:25;;;;;;;0.20;0.20;;;;;;;;;;5011947;28;20398;-59
2023/09/09 06:37:50;;;;;;;0.20;0.20;;;;;;;;;;5010852;28;20037;-59
2023/09/09 06:40:16;;;;;;;0.20;0.20;;;;;;;;;;5011713;28;20091;-59
2023/09/09 06:42:41;;;;;;;0.20;0.20;;;;;;;;;;5018483;28;21324;-62
2023/09/09 06:45:07;;;;;;;0.20;0.20;;;;;;;;;;5014001;28;20029;-62
2023/09/09 06:47:32;;;;;;;0.20;0.20;;;;;;;;;;5014185;28;20033;-60
2023/09/09 06:49:57;;;;;;;0.20;0.20;;;;;;;;;;5009991;28;20033;-59
2023/09/09 06:52:23;;;;;;;0.20;0.20;;;;;;;;;;5010052;28;20108;-64
2023/09/09 06:54:48;;;;;;;0.20;0.20;;;;;;;;;;5010932;28;20057;-59
2023/09/09 06:57:13;;;;;;;0.20;0.20;;;;;;;;;;5011219;28;20088;-61
2023/09/09 06:59:39;;;;;;;0.10;0.10;;;;;;;;;;5012355;28;20048;-59
2023/09/09 07:02:06;;;;;;;0.10;0.10;;;;;;;;;;5008583;28;20038;-59
2023/09/09 07:04:31;;;;;;;0.20;0.20;;;;;;;;;;5006366;28;20028;-58
2023/09/09 07:06:56;;;;;;;0.10;0.10;;;;;;;;;;5021603;28;20040;-59
2023/09/09 07:09:22;;;;;;;0.20;0.20;;;;;;;;;;5015407;28;20040;-61
2023/09/09 07:11:47;;;;;;;0.10;0.10;;;;;;;;;;5016483;28;20959;-60
2023/09/09 07:14:12;;;;;;;0.10;0.10;;;;;;;;;;5011553;28;20487;-62
2023/09/09 07:16:38;;;;;;;0.10;0.10;;;;;;;;;;5009943;28;20040;-62
2023/09/09 07:19:03;;;;;;;0.20;0.20;;;;;;;;;;5011338;28;20124;-60
2023/09/09 07:21:28;;;;;;;0.10;0.10;;;;;;;;;;5010618;28;20068;-60
2023/09/09 07:23:54;;;;;;;0.10;0.10;;;;;;;;;;5011766;28;20029;-59
2023/09/09 07:26:19;;;;;;;0.10;0.10;;;;;;;;;;5010181;28;20062;-58
2023/09/09 07:28:45;;;;;;;0.10;0.10;;;;;;;;;;5008729;28;20053;-62
2023/09/09 07:31:11;;;;;;;0.10;0.10;;;;;;;;;;5015488;28;20175;-59
2023/09/09 07:33:36;;;;;;;0.10;0.10;;;;;;;;;;5013165;28;20267;-60
2023/09/09 07:36:02;;;;;;;0.10;0.10;;;;;;;;;;5012977;28;20109;-58
2023/09/09 07:38:27;;;;;;;0.10;0.10;;;;;;;;;;5017601;28;20077;-58
2023/09/09 07:41:00;;;;;;;0.20;0.20;;;;;;;;;;5017069;28;20052;-61
2023/09/09 07:43:25;;;;;;;0.10;0.10;;;;;;;;;;5015391;28;20156;-61
2023/09/09 07:45:51;;;;;;;0.10;0.10;;;;;;;;;;5015226;28;20104;-59
2023/09/09 07:48:17;;;;;;;0.10;0.10;;;;;;;;;;5012974;28;20117;-59
2023/09/09 07:50:49;;;;;;;0.10;0.10;;;;;;;;;;5014802;28;20112;-58
2023/09/09 07:53:14;;;;;;;0.10;0.10;;;;;;;;;;5013761;28;20064;-58
2023/09/09 07:55:39;;;;;;;0.10;0.10;;;;;;;;;;5016883;28;20415;-64
2023/09/09 07:58:05;;;;;;;0.10;0.10;;;;;;;;;;5009563;28;20574;-59
2023/09/09 08:00:30;;;;;;;0.10;0.10;;;;;;;;;;5014673;28;20086;-59
2023/09/09 08:02:55;;;;;;;0.10;0.10;;;;;;;;;;5016114;28;20093;-60
2023/09/09 08:05:20;;;;;;;0.10;0.10;;;;;;;;;;5013180;28;20129;-58
2023/09/09 08:07:46;;;;;;;0.10;0.10;;;;;;;;;;4994352;28;20014;-61
2023/09/09 08:10:12;;;;;;;0.10;0.10;;;;;;;;;;5014130;28;20044;-62
2023/09/09 08:12:37;;;;;;;0.10;0.10;;;;;;;;;;5015378;28;20029;-59
2023/09/09 08:15:04;;;;;;;0.10;0.10;;;;;;;;;;5018491;28;20075;-60
2023/09/09 08:17:29;;;;;;;0.10;0.10;;;;;;;;;;5017578;28;20057;-58
2023/09/09 08:19:54;;;;;;;0.10;0.10;;;;;;;;;;5018118;28;20046;-59
2023/09/09 08:22:20;;;;;;;0.10;0.10;;;;;;;;;;5019683;28;20099;-58
2023/09/09 08:24:45;;;;;;;0.10;0.10;;;;;;;;;;5016428;28;20138;-58
2023/09/09 08:27:10;;;;;;;0.00;0.00;;;;;;;;;;5016129;28;20411;-58
2023/09/09 08:29:35;;;;;;;0.10;0.10;;;;;;;;;;5018962;28;20042;-60
2023/09/09 08:32:01;;;;;;;0.03;0.03;;;;;;;;;;5018222;28;20037;-59
2023/09/09 08:34:26;;;;;;;0.00;0.00;;;;;;;;;;5017888;28;20021;-60
2023/09/09 08:36:51;;;;;;;0.03;0.03;;;;;;;;;;5016999;28;20036;-58
2023/09/09 08:39:19;;;;;;;0.10;0.10;;;;;;;;;;5016561;28;20029;-58
2023/09/09 08:41:50;;;;;;;0.00;0.00;;;;;;;;;;5014121;28;20329;-60
2023/09/09 08:44:29;;;;;;;0.00;0.00;;;;;;;;;;5012264;28;20038;-59
2023/09/09 08:46:55;;;;;;;0.00;0.00;;;;;;;;;;5016798;28;20037;-58
2023/09/09 08:49:22;;;;;;;0.00;0.00;;;;;;;;;;5017888;28;20029;-59
2023/09/09 08:52:01;;;;;;;0.00;0.00;;;;;;;;;;5015225;28;20088;-58
2023/09/09 08:54:27;;;;;;;0.00;0.00;;;;;;;;;;5016540;28;20044;-61
2023/09/09 08:56:52;;;;;;;0.00;0.00;;;;;;;;;;5014806;28;20022;-61
2023/09/09 08:59:18;;;;;;;0.00;0.00;;;;;;;;;;5013215;28;20052;-63
2023/09/09 09:01:43;;;;;;;0.00;0.00;;;;;;;;;;5016406;28;20033;-60
2023/09/09 09:04:08;;;;;;;0.00;0.00;;;;;;;;;;5014014;28;20040;-61
2023/09/09 09:06:34;;;;;;;0.00;0.00;;;;;;;;;;5014350;28;20100;-60
2023/09/09 09:08:59;;;;;;;0.00;0.00;;;;;;;;;;5012093;28;20034;-59
2023/09/09 09:11:25;;;;;;;0.00;0.00;;;;;;;;;;5010275;28;20064;-59
2023/09/09 09:13:51;;;;;;;0.00;0.00;;;;;;;;;;5018732;28;20037;-60
2023/09/09 09:16:17;;;;;;;0.00;0.00;;;;;;;;;;5015500;28;20578;-60
2023/09/09 09:18:42;;;;;;;0.00;0.00;;;;;;;;;;5015772;28;20034;-59
2023/09/09 09:21:09;;;;;;;0.00;0.00;;;;;;;;;;5012717;28;20037;-60
2023/09/09 09:23:52;;;;;;;0.00;0.00;;;;;;;;;;5010438;28;20029;-58
2023/09/09 09:26:23;;;;;;;0.00;0.00;;;;;;;;;;5014876;28;20061;-58
2023/09/09 09:28:49;;;;;;;0.00;0.00;;;;;;;;;;5016566;28;20030;-60
2023/09/09 09:31:26;;;;;;;0.00;0.00;;;;;;;;;;5015655;28;20092;-58
2023/09/09 09:33:52;;;;;;;0.00;0.00;;;;;;;;;;5014720;28;20032;-60
2023/09/09 09:36:19;;;;;;;0.00;0.00;;;;;;;;;;5015834;28;20029;-58
2023/09/09 09:38:44;;;;;;;0.00;0.00;;;;;;;;;;5017005;28;20029;-59
2023/09/09 09:41:09;;;;;;;0.00;0.00;;;;;;;;;;5010793;28;20459;-60
2023/09/09 09:43:35;;;;;;;0.00;0.00;;;;;;;;;;5016129;28;20026;-58
2023/09/09 09:46:16;;;;;;;0.00;0.00;;;;;;;;;;5015152;28;20034;-60
2023/09/09 09:48:42;;;;;;;0.00;0.00;;;;;;;;;;5018034;28;20547;-58
2023/09/09 09:51:07;;;;;;;0.00;0.00;;;;;;;;;;5013475;28;20494;-58
2023/09/09 09:53:36;;;;;;;0.00;0.00;;;;;;;;;;5016937;28;20029;-58
2023/09/09 09:56:02;;;;;;;0.00;0.00;;;;;;;;;;5013939;28;20059;-57
2023/09/09 09:58:29;;;;;;;0.00;0.00;;;;;;;;;;5013776;28;20045;-59
2023/09/09 10:00:54;;;;;;;0.00;0.00;;;;;;;;;;5015071;28;20041;-59
2023/09/09 10:03:23;;;;;;;0.00;0.00;;;;;;;;;;5014104;28;20037;-61
2023/09/09 10:05:52;;;;;;;0.00;0.00;;;;;;;;;;5014696;28;20916;-58
2023/09/09 10:08:28;;;;;;;0.00;0.00;;;;;;;;;;5014308;28;20624;-61
2023/09/09 10:11:04;;;;;;;0.00;0.00;;;;;;;;;;5016703;28;20030;-60
2023/09/09 10:13:33;;;;;;;0.00;0.00;;;;;;;;;;5013971;28;20087;-59
2023/09/09 10:15:59;;;;;;;0.00;0.00;;;;;;;;;;5016841;28;20029;-59
2023/09/09 10:18:25;;;;;;;0.00;0.00;;;;;;;;;;5014583;28;20038;-61
2023/09/09 10:20:51;;;;;;;0.00;0.00;;;;;;;;;;5010735;28;20034;-61
2023/09/09 10:23:17;;;;;;;0.00;0.00;;;;;;;;;;5014074;28;20067;-60
2023/09/09 10:25:43;;;;;;;0.00;0.00;;;;;;;;;;5012850;28;20659;-61
2023/09/09 10:28:09;;;;;;;0.00;0.00;;;;;;;;;;5013421;28;20033;-63
2023/09/09 10:30:35;;;;;;;0.00;0.00;;;;;;;;;;5015817;28;20834;-59
2023/09/09 10:33:01;;;;;;;0.00;0.00;;;;;;;;;;5016161;28;20064;-62
2023/09/09 10:35:28;;;;;;;0.00;0.00;;;;;;;;;;5011035;28;20096;-62
2023/09/09 10:37:55;;;;;;;0.00;0.00;;;;;;;;;;5013594;28;20034;-59
2023/09/09 10:40:20;;;;;;;0.00;0.00;;;;;;;;;;5008947;28;20470;-61
2023/09/09 10:42:46;;;;;;;0.00;0.00;;;;;;;;;;5013574;28;20467;-61
2023/09/09 10:45:23;;;;;;;0.00;0.00;;;;;;;;;;5016042;28;20105;-60
2023/09/09 10:47:56;;;;;;;0.00;0.00;;;;;;;;;;5012368;28;20891;-59
2023/09/09 10:50:21;;;;;;;0.00;0.00;;;;;;;;;;5011264;28;20372;-63
2023/09/09 10:52:50;;;;;;;0.00;0.00;;;;;;;;;;5013769;28;20471;-59
2023/09/09 10:55:15;;;;;;;0.00;0.00;;;;;;;;;;5011517;28;20806;-62
2023/09/09 10:57:41;;;;;;;0.00;0.00;;;;;;;;;;5014281;28;20095;-62
2023/09/09 11:00:09;;;;;;;0.00;0.00;;;;;;;;;;5013234;28;20598;-60
2023/09/09 11:02:47;;;;;;;0.00;0.00;;;;;;;;;;5013839;28;20030;-61
2023/09/09 11:05:13;;;;;;;0.00;0.00;;;;;;;;;;5010526;28;20044;-62
2023/09/09 11:07:39;;;;;;;0.00;0.00;;;;;;;;;;5012662;28;20500;-61
2023/09/09 11:10:05;;;;;;;0.00;0.00;;;;;;;;;;5014092;28;20033;-62
2023/09/09 11:12:31;;;;;;;0.00;0.00;;;;;;;;;;5022921;28;20033;-61
2023/09/09 11:14:58;;;;;;;0.00;0.00;;;;;;;;;;5011076;28;20111;-60
2023/09/09 11:17:26;;;;;;;0.00;0.00;;;;;;;;;;5009163;28;20476;-59
2023/09/09 11:19:52;;;;;;;0.00;0.00;;;;;;;;;;5011487;28;20060;-61
2023/09/09 11:22:18;;;;;;;0.00;0.00;;;;;;;;;;5012014;28;20380;-62
2023/09/09 11:24:43;;;;;;;0.00;0.00;;;;;;;;;;5012860;28;20021;-59
2023/09/09 11:27:09;;;;;;;0.00;0.00;;;;;;;;;;5014706;28;20408;-60
2023/09/09 11:29:34;;;;;;;0.00;0.00;;;;;;;;;;5012188;28;20037;-61
2023/09/09 11:32:00;;;;;;;0.00;0.00;;;;;;;;;;5011038;28;20033;-60
2023/09/09 11:34:32;;;;;;;0.00;0.00;;;;;;;;;;5017803;28;20780;-61
2023/09/09 11:36:58;;;;;;;0.00;0.00;;;;;;;;;;5012815;28;20395;-60
2023/09/09 11:39:24;;;;;;;0.00;0.00;;;;;;;;;;5010470;28;20017;-60
2023/09/09 11:41:49;;;;;;;0.00;0.00;;;;;;;;;;5011772;28;20045;-60
2023/09/09 11:44:14;;;;;;;0.00;0.00;;;;;;;;;;5012133;28;20468;-60
2023/09/09 11:46:41;;;;;;;0.00;0.00;;;;;;;;;;5009874;28;20030;-60
2023/09/09 11:49:07;;;;;;;0.00;0.00;;;;;;;;;;5017735;28;20026;-63
2023/09/09 11:51:33;;;;;;;0.00;0.00;;;;;;;;;;5017326;28;20041;-62
2023/09/09 11:53:59;;;;;;;0.00;0.00;;;;;;;;;;5015031;28;20041;-61
2023/09/09 11:56:25;;;;;;;0.00;0.00;;;;;;;;;;5015974;28;20029;-60
2023/09/09 11:58:50;;;;;;;0.00;0.00;;;;;;;;;;5016730;28;20069;-61
2023/09/09 12:01:18;;;;;;;0.00;0.00;;;;;;;;;;5010948;28;20034;-61
2023/09/09 12:03:43;;;;;;;0.00;0.00;;;;;;;;;;5017661;28;20029;-61
2023/09/09 12:06:10;;;;;;;0.00;0.00;;;;;;;;;;5013097;28;20025;-59
2023/09/09 12:08:35;;;;;;;0.00;0.00;;;;;;;;;;5017708;28;20179;-63
2023/09/09 12:11:02;;;;;;;0.00;0.00;;;;;;;;;;5014515;28;20037;-62
2023/09/09 12:13:28;;;;;;;0.00;0.00;;;;;;;;;;5013407;28;20399;-60
2023/09/09 12:15:55;;;;;;;0.00;0.00;;;;;;;;;;5016607;28;20092;-62
2023/09/09 12:18:20;;;;;;;0.00;0.00;;;;;;;;;;5016289;28;20029;-60
2023/09/09 12:21:04;;;;;;;0.00;0.00;;;;;;;;;;5015531;28;20032;-62
2023/09/09 12:23:33;;;;;;;0.00;0.00;;;;;;;;;;5018711;28;20033;-61
2023/09/09 12:26:08;;;;;;;0.00;0.00;;;;;;;;;;5014830;28;20034;-60
2023/09/09 12:28:34;;;;;;;0.00;0.00;;;;;;;;;;5015653;28;20064;-61
2023/09/09 12:30:59;;;;;;;0.00;0.00;;;;;;;;;;5014340;28;20093;-62
2023/09/09 12:33:24;;;;;;;0.00;0.00;;;;;;;;;;5017141;28;20148;-60
2023/09/09 12:35:51;;;;;;;0.00;0.00;;;;;;;;;;5015522;28;20411;-60
2023/09/09 12:38:17;;;;;;;0.00;0.00;;;;;;;;;;5014618;28;20055;-62
2023/09/09 12:40:52;;;;;;;0.00;0.00;;;;;;;;;;5013281;28;20640;-62
2023/09/09 12:43:22;;;;;;;0.00;0.00;;;;;;;;;;5017795;28;20041;-61
2023/09/09 12:45:50;;;;;;;0.00;0.00;;;;;;;;;;5016494;28;20025;-62
2023/09/09 12:48:15;;;;;;;0.00;0.00;;;;;;;;;;5016602;28;20033;-63
2023/09/09 12:50:41;;;;;;;0.00;0.00;;;;;;;;;;5015032;28;20030;-60
2023/09/09 12:53:06;;;;;;;0.00;0.00;;;;;;;;;;5016998;28;20033;-61
2023/09/09 12:55:32;;;;;;;0.00;0.00;;;;;;;;;;5015512;28;20408;-61
2023/09/09 12:57:59;;;;;;;0.00;0.00;;;;;;;;;;5016015;28;20033;-61
2023/09/09 13:00:25;;;;;;;0.00;0.00;;;;;;;;;;5014140;28;20034;-60
2023/09/09 13:02:50;;;;;;;0.00;0.00;;;;;;;;;;5015024;28;20180;-60
2023/09/09 13:05:16;;;;;;;0.00;0.00;;;;;;;;;;5015633;28;20048;-60
2023/09/09 13:07:41;;;;;;;0.00;0.00;;;;;;;;;;5019135;28;20060;-62
2023/09/09 13:10:07;;;;;;;0.00;0.00;;;;;;;;;;5015012;28;20031;-60
2023/09/09 13:12:32;;;;;;;0.00;0.00;;;;;;;;;;5024994;28;20039;-61
2023/09/09 13:14:58;;;;;;;0.00;0.00;;;;;;;;;;5016640;28;20471;-61
2023/09/09 13:17:23;;;;;;;0.00;0.00;;;;;;;;;;5019247;28;20083;-61
2023/09/09 13:19:49;;;;;;;0.00;0.00;;;;;;;;;;5016394;28;20029;-61
2023/09/09 13:22:14;;;;;;;0.00;0.00;;;;;;;;;;5018112;28;20603;-60
2023/09/09 13:24:39;;;;;;;0.00;0.00;;;;;;;;;;5017136;28;20105;-61
2023/09/09 13:27:05;;;;;;;0.00;0.00;;;;;;;;;;5015587;28;20041;-61
2023/09/09 13:29:30;;;;;;;0.00;0.00;;;;;;;;;;5012641;28;20034;-61
2023/09/09 13:31:55;;;;;;;0.00;0.00;;;;;;;;;;5013087;28;20095;-61
2023/09/09 13:34:21;;;;;;;0.00;0.00;;;;;;;;;;5016949;28;20069;-62
2023/09/09 13:36:46;;;;;;;0.00;0.00;;;;;;;;;;5017260;28;20621;-60
2023/09/09 13:39:11;;;;;;;0.00;0.00;;;;;;;;;;5013922;28;20037;-61
2023/09/09 13:41:36;;;;;;;0.00;0.00;;;;;;;;;;5014251;28;20033;-61
2023/09/09 13:44:02;;;;;;;0.00;0.00;;;;;;;;;;5015179;28;21497;-62
2023/09/09 13:46:27;;;;;;;0.00;0.00;;;;;;;;;;5011838;28;20041;-61
2023/09/09 13:48:53;;;;;;;0.00;0.00;;;;;;;;;;5019247;28;20420;-63
2023/09/09 13:51:18;;;;;;;0.00;0.00;;;;;;;;;;5015054;28;20025;-61
2023/09/09 13:53:43;;;;;;;0.00;0.00;;;;;;;;;;5015156;28;20033;-62
2023/09/09 13:56:09;;;;;;;0.00;0.00;;;;;;;;;;5012408;28;20372;-61
2023/09/09 13:58:34;;;;;;;0.00;0.00;;;;;;;;;;5021488;28;20074;-59
2023/09/09 14:00:59;;;;;;;0.00;0.00;;;;;;;;;;5016250;28;20125;-63
2023/09/09 14:03:25;;;;;;;0.00;0.00;;;;;;;;;;5015438;28;20835;-60
2023/09/09 14:05:50;;;;;;;0.00;0.00;;;;;;;;;;5013646;28;20025;-57
2023/09/09 14:08:15;;;;;;;0.00;0.00;;;;;;;;;;5015789;28;20215;-58
2023/09/09 14:10:40;;;;;;;0.00;0.00;;;;;;;;;;5013826;28;20179;-59
2023/09/09 14:13:06;;;;;;;0.00;0.00;;;;;;;;;;5017609;28;20586;-59
2023/09/09 14:15:31;;;;;;;0.00;0.00;;;;;;;;;;5012182;28;20649;-58
2023/09/09 14:17:56;;;;;;;0.00;0.00;;;;;;;;;;5014730;28;20067;-60
2023/09/09 14:20:22;;;;;;;0.00;0.00;;;;;;;;;;5018263;28;20038;-59
2023/09/09 14:22:48;;;;;;;0.00;0.00;;;;;;;;;;5016468;28;20041;-59
2023/09/09 14:25:14;;;;;;;0.00;0.00;;;;;;;;;;5011992;28;20490;-58
2023/09/09 14:27:39;;;;;;;0.00;0.00;;;;;;;;;;5015195;28;20026;-58
2023/09/09 14:30:05;;;;;;;0.00;0.00;;;;;;;;;;5013701;28;20034;-59
2023/09/09 14:32:30;;;;;;;0.00;0.00;;;;;;;;;;5012935;28;20072;-64
2023/09/09 14:34:55;;;;;;;0.00;0.00;;;;;;;;;;5011085;28;20030;-59
2023/09/09 14:37:20;;;;;;;0.00;0.00;;;;;;;;;;5013240;28;20134;-59